Time,TemperatureF,DewpointF,PressureIn,WindDirection,WindDirectionDegrees,WindSpeedMPH,WindSpeedGustMPH,Humidity,HourlyPrecipIn,Conditions,Clouds,dailyrainin,SoftwareType,DateUTC
2013-09-03 00:04:00,66.9,56.0,28.50,North,5,0.0,0.0,68,0.00,,---,0.00,VWS V14.01,2013-09-03 05:04:00,
2013-09-03 00:09:00,66.7,56.3,28.50,North,5,0.0,0.0,69,0.00,,---,0.00,VWS V14.01,2013-09-03 05:09:00,
2013-09-03 00:15:00,66.7,56.3,28.50,North,5,0.0,0.0,69,0.00,,---,0.00,VWS V14.01,2013-09-03 05:15:00,
2013-09-03 00:20:00,66.6,56.5,28.50,North,5,0.0,0.0,70,0.00,,---,0.00,VWS V14.01,2013-09-03 05:20:00,
2013-09-03 00:25:00,66.4,56.3,28.50,North,5,0.0,0.0,70,0.00,,---,0.00,VWS V14.01,2013-09-03 05:25:00,
2013-09-03 00:30:00,66.4,56.3,28.50,North,5,0.0,0.0,70,0.00,,---,0.00,VWS V14.01,2013-09-03 05:30:00,
2013-09-03 00:35:00,66.2,56.1,28.50,North,5,0.0,0.0,70,0.00,,---,0.00,VWS V14.01,2013-09-03 05:35:00,
2013-09-03 00:40:00,66.2,56.5,28.50,North,5,0.0,0.0,71,0.00,,---,0.00,VWS V14.01,2013-09-03 05:40:00,
2013-09-03 00:45:00,66.0,56.4,28.50,North,5,0.0,0.0,71,0.00,,---,0.00,VWS V14.01,2013-09-03 05:45:00,
2013-09-03 00:50:00,66.0,56.4,28.50,North,5,0.0,0.0,71,0.00,,---,0.00,VWS V14.01,2013-09-03 05:50:00,
2013-09-03 00:55:00,66.0,56.7,28.50,North,5,0.0,0.0,72,0.00,,---,0.00,VWS V14.01,2013-09-03 05:55:00,
2013-09-03 01:00:00,66.0,56.7,28.50,North,5,0.0,0.0,72,0.00,,---,0.00,VWS V14.01,2013-09-03 06:00:00,
2013-09-03 01:05:00,65.8,56.6,28.50,North,5,0.0,0.0,72,0.00,,---,0.00,VWS V14.01,2013-09-03 06:05:00,
2013-09-03 01:11:00,65.8,56.6,28.50,North,5,0.0,0.0,72,0.00,,---,0.00,VWS V14.01,2013-09-03 06:11:00,
2013-09-03 01:16:00,65.8,56.6,28.50,North,10,0.0,3.1,72,0.00,,---,0.00,VWS V14.01,2013-09-03 06:16:00,
2013-09-03 01:21:00,65.8,56.6,28.50,North,10,0.0,3.1,72,0.00,,---,0.00,VWS V14.01,2013-09-03 06:21:00,
2013-09-03 01:26:00,65.7,56.4,28.50,North,10,0.0,3.1,72,0.00,,---,0.00,VWS V14.01,2013-09-03 06:26:00,
2013-09-03 01:31:00,65.7,56.4,28.50,North,10,0.0,3.1,72,0.00,,---,0.00,VWS V14.01,2013-09-03 06:31:00,
2013-09-03 01:36:00,65.5,56.2,28.50,North,10,0.0,3.1,72,0.00,,---,0.00,VWS V14.01,2013-09-03 06:36:00,
2013-09-03 01:41:00,65.1,55.9,28.50,North,10,0.0,3.1,72,0.00,,---,0.00,VWS V14.01,2013-09-03 06:41:00,
2013-09-03 01:46:00,64.8,55.5,28.50,North,10,0.0,3.1,72,0.00,,---,0.00,VWS V14.01,2013-09-03 06:46:00,
2013-09-03 01:51:00,64.4,55.2,28.50,North,10,0.0,3.1,72,0.00,,---,0.00,VWS V14.01,2013-09-03 06:51:00,
2013-09-03 01:56:00,64.2,55.0,28.50,North,10,0.0,3.1,72,0.00,,---,0.00,VWS V14.01,2013-09-03 06:56:00,
2013-09-03 02:02:00,63.9,55.0,28.50,North,10,0.0,0.0,73,0.00,,---,0.00,VWS V14.01,2013-09-03 07:02:00,
2013-09-03 02:07:00,63.7,54.9,28.50,North,10,0.0,0.0,73,0.00,,---,0.00,VWS V14.01,2013-09-03 07:07:00,
2013-09-03 02:12:00,63.5,54.7,28.50,North,10,0.0,0.0,73,0.00,,---,0.00,VWS V14.01,2013-09-03 07:12:00,
2013-09-03 02:17:00,63.1,54.3,28.50,North,10,0.0,0.0,73,0.00,,---,0.00,VWS V14.01,2013-09-03 07:17:00,
2013-09-03 02:22:00,63.1,54.7,28.50,North,10,0.0,0.0,74,0.00,,---,0.00,VWS V14.01,2013-09-03 07:22:00,
2013-09-03 02:27:00,63.0,54.5,28.50,North,10,0.0,0.0,74,0.00,,---,0.00,VWS V14.01,2013-09-03 07:27:00,
2013-09-03 02:32:00,62.8,54.8,28.50,North,10,0.0,0.0,75,0.00,,---,0.00,VWS V14.01,2013-09-03 07:32:00,
2013-09-03 02:37:00,62.6,54.6,28.50,North,10,0.0,0.0,75,0.00,,---,0.00,VWS V14.01,2013-09-03 07:37:00,
2013-09-03 02:42:00,62.6,54.9,28.50,North,10,0.0,0.0,76,0.00,,---,0.00,VWS V14.01,2013-09-03 07:42:00,
2013-09-03 02:48:00,62.6,54.9,28.50,North,11,0.0,0.0,76,0.00,,---,0.00,VWS V14.01,2013-09-03 07:48:00,
2013-09-03 02:53:00,62.8,55.5,28.50,North,11,0.0,0.0,77,0.00,,---,0.00,VWS V14.01,2013-09-03 07:53:00,
2013-09-03 02:58:00,62.8,55.5,28.50,North,11,0.0,0.0,77,0.00,,---,0.00,VWS V14.01,2013-09-03 07:58:00,
2013-09-03 03:03:00,62.8,55.5,28.50,North,11,0.0,0.0,77,0.00,,---,0.00,VWS V14.01,2013-09-03 08:03:00,
2013-09-03 03:08:00,62.8,55.5,28.50,North,11,0.0,0.0,77,0.00,,---,0.00,VWS V14.01,2013-09-03 08:08:00,
2013-09-03 03:13:00,62.6,55.3,28.50,North,11,0.0,0.0,77,0.00,,---,0.00,VWS V14.01,2013-09-03 08:13:00,
2013-09-03 03:18:00,62.4,55.5,28.50,North,11,0.0,0.0,78,0.00,,---,0.00,VWS V14.01,2013-09-03 08:18:00,
2013-09-03 03:23:00,62.2,55.3,28.50,North,11,0.0,0.0,78,0.00,,---,0.00,VWS V14.01,2013-09-03 08:23:00,
2013-09-03 03:29:00,62.1,55.1,28.50,North,11,0.0,0.0,78,0.00,,---,0.00,VWS V14.01,2013-09-03 08:29:00,
2013-09-03 03:34:00,61.9,55.0,28.50,North,11,0.0,0.0,78,0.00,,---,0.00,VWS V14.01,2013-09-03 08:34:00,
2013-09-03 03:39:00,61.7,54.8,28.50,North,11,0.0,0.0,78,0.00,,---,0.00,VWS V14.01,2013-09-03 08:39:00,
2013-09-03 03:44:00,61.5,54.6,28.50,North,11,0.0,0.0,78,0.00,,---,0.00,VWS V14.01,2013-09-03 08:44:00,
2013-09-03 03:49:00,61.3,54.8,28.50,North,11,0.0,0.0,79,0.00,,---,0.00,VWS V14.01,2013-09-03 08:49:00,
2013-09-03 03:54:00,61.3,54.8,28.50,North,11,0.0,0.0,79,0.00,,---,0.00,VWS V14.01,2013-09-03 08:54:00,
2013-09-03 03:59:00,61.3,54.8,28.50,North,11,0.0,0.0,79,0.00,,---,0.00,VWS V14.01,2013-09-03 08:59:00,
2013-09-03 04:04:00,61.2,54.6,28.50,North,11,0.0,0.0,79,0.00,,---,0.00,VWS V14.01,2013-09-03 09:04:00,
2013-09-03 04:09:00,61.2,55.0,28.50,North,11,0.0,0.0,80,0.00,,---,0.00,VWS V14.01,2013-09-03 09:09:00,
2013-09-03 04:14:00,61.2,55.0,28.50,North,11,0.0,0.0,80,0.00,,---,0.00,VWS V14.01,2013-09-03 09:14:00,
2013-09-03 04:20:00,61.2,55.0,28.50,North,11,0.0,0.0,80,0.00,,---,0.00,VWS V14.01,2013-09-03 09:20:00,
2013-09-03 04:25:00,61.0,55.1,28.50,North,11,0.0,0.0,81,0.00,,---,0.00,VWS V14.01,2013-09-03 09:25:00,
2013-09-03 04:30:00,61.0,55.1,28.50,North,11,0.0,0.0,81,0.00,,---,0.00,VWS V14.01,2013-09-03 09:30:00,
2013-09-03 04:35:00,60.8,54.9,28.50,North,11,0.0,0.0,81,0.00,,---,0.00,VWS V14.01,2013-09-03 09:35:00,
2013-09-03 04:40:00,60.8,54.9,28.50,North,11,0.0,0.0,81,0.00,,---,0.00,VWS V14.01,2013-09-03 09:40:00,
2013-09-03 04:45:00,60.8,54.9,28.50,North,11,0.0,0.0,81,0.00,,---,0.00,VWS V14.01,2013-09-03 09:45:00,
2013-09-03 04:50:00,60.6,54.8,28.50,North,11,0.0,0.0,81,0.00,,---,0.00,VWS V14.01,2013-09-03 09:50:00,
2013-09-03 04:55:00,60.6,55.1,28.50,North,11,0.0,0.0,82,0.00,,---,0.00,VWS V14.01,2013-09-03 09:55:00,
2013-09-03 05:00:00,60.4,54.9,28.50,North,11,0.0,0.0,82,0.00,,---,0.00,VWS V14.01,2013-09-03 10:00:00,
2013-09-03 05:05:00,60.4,54.9,28.50,North,11,0.0,0.0,82,0.00,,---,0.00,VWS V14.01,2013-09-03 10:05:00,
2013-09-03 05:10:00,60.4,54.9,28.50,North,11,0.0,0.0,82,0.00,,---,0.00,VWS V14.01,2013-09-03 10:10:00,
2013-09-03 05:16:00,60.3,54.8,28.50,North,11,0.0,0.0,82,0.00,,---,0.00,VWS V14.01,2013-09-03 10:16:00,
2013-09-03 05:21:00,60.1,54.6,28.50,North,11,0.0,0.0,82,0.00,,---,0.00,VWS V14.01,2013-09-03 10:21:00,
2013-09-03 05:26:00,59.9,54.4,28.50,North,11,0.0,0.0,82,0.00,,---,0.00,VWS V14.01,2013-09-03 10:26:00,
2013-09-03 05:31:00,59.9,54.4,28.50,North,11,0.0,0.0,82,0.00,,---,0.00,VWS V14.01,2013-09-03 10:31:00,
2013-09-03 05:36:00,59.7,54.6,28.50,North,11,0.0,0.0,83,0.00,,---,0.00,VWS V14.01,2013-09-03 10:36:00,
2013-09-03 05:41:00,59.7,54.6,28.50,North,11,0.0,0.0,83,0.00,,---,0.00,VWS V14.01,2013-09-03 10:41:00,
2013-09-03 05:46:00,59.5,54.4,28.50,North,11,0.0,0.0,83,0.00,,---,0.00,VWS V14.01,2013-09-03 10:46:00,
2013-09-03 05:51:00,59.4,54.2,28.50,North,11,0.0,0.0,83,0.00,,---,0.00,VWS V14.01,2013-09-03 10:51:00,
2013-09-03 05:56:00,59.4,54.2,28.50,North,11,0.0,0.0,83,0.00,,---,0.00,VWS V14.01,2013-09-03 10:56:00,
2013-09-03 06:01:00,59.4,54.2,28.50,North,11,0.0,0.0,83,0.00,,---,0.00,VWS V14.01,2013-09-03 11:01:00,
2013-09-03 06:06:00,59.4,54.2,28.50,North,11,0.0,0.0,83,0.00,,---,0.00,VWS V14.01,2013-09-03 11:06:00,
2013-09-03 06:12:00,59.4,54.5,28.53,North,11,0.0,0.0,84,0.00,,---,0.00,VWS V14.01,2013-09-03 11:12:00,
2013-09-03 06:17:00,59.4,54.5,28.53,North,11,0.0,0.0,84,0.00,,---,0.00,VWS V14.01,2013-09-03 11:17:00,
2013-09-03 06:22:00,59.4,54.5,28.53,North,11,0.0,0.0,84,0.00,,---,0.00,VWS V14.01,2013-09-03 11:22:00,
2013-09-03 06:27:00,59.2,54.4,28.53,North,11,0.0,0.0,84,0.00,,---,0.00,VWS V14.01,2013-09-03 11:27:00,
2013-09-03 06:32:00,59.2,54.4,28.53,North,11,0.0,0.0,84,0.00,,---,0.00,VWS V14.01,2013-09-03 11:32:00,
2013-09-03 06:37:00,59.0,54.2,28.53,North,11,0.0,0.0,84,0.00,,---,0.00,VWS V14.01,2013-09-03 11:37:00,
2013-09-03 06:42:00,59.0,54.2,28.53,North,11,0.0,0.0,84,0.00,,---,0.00,VWS V14.01,2013-09-03 11:42:00,
2013-09-03 06:47:00,59.0,54.5,28.53,North,11,0.0,0.0,85,0.00,,---,0.00,VWS V14.01,2013-09-03 11:47:00,
2013-09-03 06:52:00,59.0,54.5,28.53,North,11,0.0,0.0,85,0.00,,---,0.00,VWS V14.01,2013-09-03 11:52:00,
2013-09-03 06:57:00,59.0,54.5,28.53,North,11,0.0,0.0,85,0.00,,---,0.00,VWS V14.01,2013-09-03 11:57:00,
2013-09-03 07:03:00,58.8,54.7,28.53,North,11,0.0,0.0,86,0.00,,---,0.00,VWS V14.01,2013-09-03 12:03:00,
2013-09-03 07:08:00,58.8,54.7,28.53,North,11,0.0,0.0,86,0.00,,---,0.00,VWS V14.01,2013-09-03 12:08:00,
2013-09-03 07:13:00,58.8,54.7,28.53,North,11,0.0,0.0,86,0.00,,---,0.00,VWS V14.01,2013-09-03 12:13:00,
2013-09-03 07:18:00,58.8,54.7,28.53,North,11,0.0,0.0,86,0.00,,---,0.00,VWS V14.01,2013-09-03 12:18:00,
2013-09-03 07:23:00,58.8,54.7,28.53,North,11,0.0,0.0,86,0.00,,---,0.00,VWS V14.01,2013-09-03 12:23:00,
2013-09-03 07:28:00,59.0,54.8,28.53,North,11,0.0,0.0,86,0.00,,---,0.00,VWS V14.01,2013-09-03 12:28:00,
2013-09-03 07:33:00,59.0,55.1,28.53,North,11,0.0,0.0,87,0.00,,---,0.00,VWS V14.01,2013-09-03 12:33:00,
2013-09-03 07:38:00,59.2,55.3,28.53,North,11,0.0,0.0,87,0.00,,---,0.00,VWS V14.01,2013-09-03 12:38:00,
2013-09-03 07:43:00,59.4,55.5,28.53,North,11,0.0,0.0,87,0.00,,---,0.00,VWS V14.01,2013-09-03 12:43:00,
2013-09-03 07:48:00,59.5,56.0,28.53,North,11,0.0,0.0,88,0.00,,---,0.00,VWS V14.01,2013-09-03 12:48:00,
2013-09-03 07:53:00,59.9,56.3,28.53,North,11,0.0,0.0,88,0.00,,---,0.00,VWS V14.01,2013-09-03 12:53:00,
2013-09-03 07:59:00,60.4,57.2,28.53,North,11,0.0,0.0,89,0.00,,---,0.00,VWS V14.01,2013-09-03 12:59:00,
2013-09-03 08:04:00,61.0,57.7,28.53,North,11,0.0,0.0,89,0.00,,---,0.00,VWS V14.01,2013-09-03 13:04:00,
2013-09-03 08:09:00,61.5,58.2,28.53,North,11,0.0,0.0,89,0.00,,---,0.00,VWS V14.01,2013-09-03 13:09:00,
2013-09-03 08:14:00,61.9,58.6,28.53,North,11,0.0,0.0,89,0.00,,---,0.00,VWS V14.01,2013-09-03 13:14:00,
2013-09-03 08:19:00,62.4,59.5,28.53,North,11,0.0,0.0,90,0.00,,---,0.00,VWS V14.01,2013-09-03 13:19:00,
2013-09-03 08:24:00,62.8,59.5,28.53,North,11,0.0,0.0,89,0.00,,---,0.00,VWS V14.01,2013-09-03 13:24:00,
2013-09-03 08:29:00,63.5,60.5,28.53,North,11,0.0,0.0,90,0.00,,---,0.00,VWS V14.01,2013-09-03 13:29:00,
2013-09-03 08:34:00,64.0,61.0,28.53,North,11,0.0,0.0,90,0.00,,---,0.00,VWS V14.01,2013-09-03 13:34:00,
2013-09-03 08:39:00,64.9,61.9,28.53,North,11,0.0,0.0,90,0.00,,---,0.00,VWS V14.01,2013-09-03 13:39:00,
2013-09-03 08:44:00,66.0,63.0,28.53,NNW,330,0.0,0.0,90,0.00,,---,0.00,VWS V14.01,2013-09-03 13:44:00,
2013-09-03 08:50:00,67.1,63.8,28.53,NNW,330,0.0,0.0,89,0.00,,---,0.00,VWS V14.01,2013-09-03 13:50:00,
2013-09-03 08:55:00,68.0,64.3,28.53,NNW,330,0.0,0.0,88,0.00,,---,0.00,VWS V14.01,2013-09-03 13:55:00,
2013-09-03 09:00:00,68.9,64.9,28.53,NNW,329,0.0,0.0,87,0.00,,---,0.00,VWS V14.01,2013-09-03 14:00:00,
2013-09-03 09:05:00,69.8,65.1,28.53,NNW,329,0.0,0.0,85,0.00,,---,0.00,VWS V14.01,2013-09-03 14:05:00,
2013-09-03 09:10:00,70.5,65.1,28.56,NNW,329,0.0,0.0,83,0.00,,---,0.00,VWS V14.01,2013-09-03 14:10:00,
2013-09-03 09:15:00,71.4,65.3,28.56,NNW,330,0.0,0.0,81,0.00,,---,0.00,VWS V14.01,2013-09-03 14:15:00,
2013-09-03 09:20:00,72.0,64.7,28.56,SW,223,0.0,3.1,78,0.00,,---,0.00,VWS V14.01,2013-09-03 14:20:00,
2013-09-03 09:25:00,72.7,64.3,28.56,SE,141,0.0,4.0,75,0.00,,---,0.00,VWS V14.01,2013-09-03 14:25:00,
2013-09-03 09:30:00,73.2,63.3,28.56,SE,141,0.0,4.0,71,0.00,,---,0.00,VWS V14.01,2013-09-03 14:30:00,
2013-09-03 09:35:00,73.9,62.7,28.56,SE,141,0.0,4.0,68,0.00,,---,0.00,VWS V14.01,2013-09-03 14:35:00,
2013-09-03 09:41:00,74.7,62.6,28.56,South,172,0.0,4.0,66,0.00,,---,0.00,VWS V14.01,2013-09-03 14:41:00,
2013-09-03 09:46:00,75.0,61.1,28.56,South,180,0.0,4.0,62,0.00,,---,0.00,VWS V14.01,2013-09-03 14:46:00,
2013-09-03 09:51:00,75.6,59.3,28.56,South,186,0.0,4.0,57,0.00,,---,0.00,VWS V14.01,2013-09-03 14:51:00,
2013-09-03 09:56:00,75.9,58.6,28.56,SSW,213,4.0,4.0,55,0.00,,---,0.00,VWS V14.01,2013-09-03 14:56:00,
2013-09-03 10:01:00,76.5,58.6,28.56,SSW,213,0.0,0.0,54,0.00,,---,0.00,VWS V14.01,2013-09-03 15:01:00,
2013-09-03 10:06:00,77.0,57.5,28.56,North,357,2.7,2.7,51,0.00,,---,0.00,VWS V14.01,2013-09-03 15:06:00,
2013-09-03 10:11:00,77.7,58.2,28.56,SSE,161,0.0,3.6,51,0.00,,---,0.00,VWS V14.01,2013-09-03 15:11:00,
2013-09-03 10:16:00,78.4,58.8,28.56,SSE,166,4.0,4.0,51,0.00,,---,0.00,VWS V14.01,2013-09-03 15:16:00,
2013-09-03 10:21:00,79.0,58.2,28.56,South,180,0.0,4.0,49,0.00,,---,0.00,VWS V14.01,2013-09-03 15:21:00,
2013-09-03 10:26:00,79.7,58.3,28.56,SSW,198,2.7,4.0,48,0.00,,---,0.00,VWS V14.01,2013-09-03 15:26:00,
2013-09-03 10:31:00,80.2,57.0,28.56,WSW,255,2.2,4.0,45,0.00,,---,0.00,VWS V14.01,2013-09-03 15:31:00,
2013-09-03 10:37:00,80.6,57.3,28.56,East,81,2.2,4.0,45,0.00,,---,0.00,VWS V14.01,2013-09-03 15:37:00,
2013-09-03 10:42:00,81.0,57.0,28.56,SE,127,3.1,4.0,44,0.00,,---,0.00,VWS V14.01,2013-09-03 15:42:00,
2013-09-03 10:47:00,81.5,57.5,28.56,South,183,0.0,4.0,44,0.00,,---,0.00,VWS V14.01,2013-09-03 15:47:00,
2013-09-03 10:52:00,81.9,57.2,28.56,SE,129,0.0,5.4,43,0.00,,---,0.00,VWS V14.01,2013-09-03 15:52:00,
2013-09-03 10:57:00,82.0,57.4,28.56,SE,142,2.7,5.4,43,0.00,,---,0.00,VWS V14.01,2013-09-03 15:57:00,
2013-09-03 11:02:00,82.8,58.0,28.56,SE,142,4.0,4.0,43,0.00,,---,0.00,VWS V14.01,2013-09-03 16:02:00,
2013-09-03 11:07:00,83.3,57.2,28.56,SSE,165,4.0,4.9,41,0.00,,---,0.00,VWS V14.01,2013-09-03 16:07:00,
2013-09-03 11:12:00,83.7,56.8,28.56,SE,136,4.0,6.3,40,0.00,,---,0.00,VWS V14.01,2013-09-03 16:12:00,
2013-09-03 11:17:00,83.8,56.3,28.56,SSW,193,2.7,6.3,39,0.00,,---,0.00,VWS V14.01,2013-09-03 16:17:00,
2013-09-03 11:22:00,84.2,57.3,28.56,SE,143,2.7,6.3,40,0.00,,---,0.00,VWS V14.01,2013-09-03 16:22:00,
2013-09-03 11:27:00,84.4,56.7,28.56,WSW,240,3.6,6.3,39,0.00,,---,0.00,VWS V14.01,2013-09-03 16:27:00,
2013-09-03 11:33:00,84.2,56.6,28.56,SE,136,4.0,6.3,39,0.00,,---,0.00,VWS V14.01,2013-09-03 16:33:00,
2013-09-03 11:38:00,84.4,56.0,28.56,West,280,3.6,6.3,38,0.00,,---,0.00,VWS V14.01,2013-09-03 16:38:00,
2013-09-03 11:43:00,84.6,55.5,28.56,NNW,338,3.1,6.3,37,0.00,,---,0.00,VWS V14.01,2013-09-03 16:43:00,
2013-09-03 11:48:00,84.7,56.3,28.56,SW,221,0.0,6.3,38,0.00,,---,0.00,VWS V14.01,2013-09-03 16:48:00,
2013-09-03 11:53:00,85.5,57.7,28.56,South,180,0.0,6.3,39,0.00,,---,0.00,VWS V14.01,2013-09-03 16:53:00,
2013-09-03 11:58:00,85.8,56.6,28.53,South,186,0.0,6.3,37,0.00,,---,0.00,VWS V14.01,2013-09-03 16:58:00,
2013-09-03 12:03:00,86.2,56.1,28.53,West,263,2.7,4.0,36,0.00,,---,0.00,VWS V14.01,2013-09-03 17:03:00,
2013-09-03 12:08:00,86.4,56.3,28.53,NE,47,2.7,4.0,36,0.00,,---,0.00,VWS V14.01,2013-09-03 17:08:00,
2013-09-03 12:13:00,86.7,56.6,28.53,SE,132,3.6,5.8,36,0.00,,---,0.00,VWS V14.01,2013-09-03 17:13:00,
2013-09-03 12:18:00,87.1,56.1,28.53,SSE,157,2.2,5.8,35,0.00,,---,0.00,VWS V14.01,2013-09-03 17:18:00,
2013-09-03 12:24:00,87.1,56.1,28.53,South,169,3.1,6.3,35,0.00,,---,0.00,VWS V14.01,2013-09-03 17:24:00,
2013-09-03 12:29:00,87.4,56.5,28.53,SSE,165,4.0,6.3,35,0.00,,---,0.00,VWS V14.01,2013-09-03 17:29:00,
2013-09-03 12:34:00,88.0,56.9,28.53,South,189,3.1,6.3,35,0.00,,---,0.00,VWS V14.01,2013-09-03 17:34:00,
2013-09-03 12:39:00,88.3,55.6,28.53,ENE,65,0.0,6.3,33,0.00,,---,0.00,VWS V14.01,2013-09-03 17:39:00,
2013-09-03 12:44:00,88.5,55.8,28.53,ESE,113,2.7,6.3,33,0.00,,---,0.00,VWS V14.01,2013-09-03 17:44:00,
2013-09-03 12:49:00,88.7,54.2,28.53,ENE,61,2.2,6.3,31,0.00,,---,0.00,VWS V14.01,2013-09-03 17:49:00,
2013-09-03 12:54:00,88.5,54.1,28.53,SSE,162,3.1,6.3,31,0.00,,---,0.00,VWS V14.01,2013-09-03 17:54:00,
2013-09-03 12:59:00,88.3,53.9,28.53,South,177,0.0,6.3,31,0.00,,---,0.00,VWS V14.01,2013-09-03 17:59:00,
2013-09-03 13:04:00,88.5,54.1,28.53,WNW,299,0.0,4.0,31,0.00,,---,0.00,VWS V14.01,2013-09-03 18:04:00,
2013-09-03 13:09:00,88.9,55.2,28.50,SW,230,0.0,5.8,32,0.00,,---,0.00,VWS V14.01,2013-09-03 18:09:00,
2013-09-03 13:14:00,89.4,55.7,28.50,East,87,4.0,5.8,32,0.00,,---,0.00,VWS V14.01,2013-09-03 18:14:00,
2013-09-03 13:19:00,90.0,54.4,28.50,SSE,163,2.2,5.8,30,0.00,,---,0.00,VWS V14.01,2013-09-03 18:19:00,
2013-09-03 13:25:00,90.0,53.5,28.50,North,9,3.6,6.3,29,0.00,,---,0.00,VWS V14.01,2013-09-03 18:25:00,
2013-09-03 13:30:00,90.0,53.5,28.50,SE,124,2.7,6.3,29,0.00,,---,0.00,VWS V14.01,2013-09-03 18:30:00,
2013-09-03 13:35:00,90.0,53.5,28.50,NE,39,0.0,6.3,29,0.00,,---,0.00,VWS V14.01,2013-09-03 18:35:00,
2013-09-03 13:40:00,90.0,53.5,28.50,NE,46,0.0,6.3,29,0.00,,---,0.00,VWS V14.01,2013-09-03 18:40:00,
2013-09-03 13:45:00,90.1,53.6,28.50,SE,146,2.2,6.3,29,0.00,,---,0.00,VWS V14.01,2013-09-03 18:45:00,
2013-09-03 13:50:00,90.5,53.9,28.50,South,187,0.0,6.3,29,0.00,,---,0.00,VWS V14.01,2013-09-03 18:50:00,
2013-09-03 13:55:00,90.7,54.1,28.50,SSE,159,4.0,6.3,29,0.00,,---,0.00,VWS V14.01,2013-09-03 18:55:00,
2013-09-03 14:00:00,90.9,53.3,28.50,South,170,3.6,5.8,28,0.00,,---,0.00,VWS V14.01,2013-09-03 19:00:00,
2013-09-03 14:05:00,91.0,54.4,28.50,ENE,65,3.1,5.8,29,0.00,,---,0.00,VWS V14.01,2013-09-03 19:05:00,
2013-09-03 14:11:00,91.0,53.4,28.50,ESE,106,2.2,5.8,28,0.00,,---,0.00,VWS V14.01,2013-09-03 19:11:00,
2013-09-03 14:16:00,91.2,53.6,28.50,South,172,3.1,5.8,28,0.00,,---,0.00,VWS V14.01,2013-09-03 19:16:00,
2013-09-03 14:21:00,91.4,53.8,28.50,NNE,32,3.1,5.8,28,0.00,,---,0.00,VWS V14.01,2013-09-03 19:21:00,
2013-09-03 14:26:00,91.2,53.6,28.50,ESE,121,0.0,5.8,28,0.00,,---,0.00,VWS V14.01,2013-09-03 19:26:00,
2013-09-03 14:31:00,91.4,53.8,28.50,ENE,61,0.0,5.8,28,0.00,,---,0.00,VWS V14.01,2013-09-03 19:31:00,
2013-09-03 14:37:00,91.4,53.8,28.50,SSW,202,2.2,5.8,28,0.00,,---,0.00,VWS V14.01,2013-09-03 19:37:00,
2013-09-03 14:42:00,91.6,53.9,28.50,ESE,122,0.0,6.3,28,0.00,,---,0.00,VWS V14.01,2013-09-03 19:42:00,
2013-09-03 14:47:00,91.8,54.0,28.50,South,169,0.0,6.3,28,0.00,,---,0.00,VWS V14.01,2013-09-03 19:47:00,
2013-09-03 14:52:00,92.1,53.4,28.50,SSE,153,0.0,6.3,27,0.00,,---,0.00,VWS V14.01,2013-09-03 19:52:00,
2013-09-03 14:57:00,92.1,53.4,28.50,SSE,151,0.0,6.3,27,0.00,,---,0.00,VWS V14.01,2013-09-03 19:57:00,
2013-09-03 15:02:00,91.9,53.2,28.50,East,82,2.2,4.9,27,0.00,,---,0.00,VWS V14.01,2013-09-03 20:02:00,
2013-09-03 15:07:00,91.6,52.9,28.50,ENE,66,0.0,4.9,27,0.00,,---,0.00,VWS V14.01,2013-09-03 20:07:00,
2013-09-03 15:12:00,91.6,52.9,28.47,SSE,167,2.7,4.9,27,0.00,,---,0.00,VWS V14.01,2013-09-03 20:12:00,
2013-09-03 15:17:00,91.6,52.9,28.47,South,190,3.6,5.4,27,0.00,,---,0.00,VWS V14.01,2013-09-03 20:17:00,
2013-09-03 15:22:00,91.8,53.1,28.47,SSW,198,2.7,5.4,27,0.00,,---,0.00,VWS V14.01,2013-09-03 20:22:00,
2013-09-03 15:28:00,92.1,53.4,28.47,SSW,206,4.0,5.4,27,0.00,,---,0.00,VWS V14.01,2013-09-03 20:28:00,
2013-09-03 15:33:00,91.9,53.2,28.47,WNW,291,0.0,5.4,27,0.00,,---,0.00,VWS V14.01,2013-09-03 20:33:00,
2013-09-03 15:38:00,91.6,52.9,28.47,North,357,2.7,5.4,27,0.00,,---,0.00,VWS V14.01,2013-09-03 20:38:00,
2013-09-03 15:43:00,91.2,53.6,28.47,SSE,149,2.7,5.4,28,0.00,,---,0.00,VWS V14.01,2013-09-03 20:43:00,
2013-09-03 15:48:00,91.4,53.8,28.47,SSE,160,3.6,5.4,28,0.00,,---,0.00,VWS V14.01,2013-09-03 20:48:00,
2013-09-03 15:53:00,91.6,52.9,28.47,SSE,156,3.1,5.4,27,0.00,,---,0.00,VWS V14.01,2013-09-03 20:53:00,
2013-09-03 15:58:00,91.6,52.9,28.47,South,177,2.2,5.8,27,0.00,,---,0.00,VWS V14.01,2013-09-03 20:58:00,
2013-09-03 16:03:00,91.6,52.9,28.47,SW,231,0.0,3.6,27,0.00,,---,0.00,VWS V14.01,2013-09-03 21:03:00,
2013-09-03 16:08:00,91.8,53.1,28.47,West,277,2.7,4.0,27,0.00,,---,0.00,VWS V14.01,2013-09-03 21:08:00,
2013-09-03 16:13:00,91.8,53.1,28.47,South,170,3.6,5.8,27,0.00,,---,0.00,VWS V14.01,2013-09-03 21:13:00,
2013-09-03 16:19:00,91.8,53.1,28.47,SSE,147,0.0,5.8,27,0.00,,---,0.00,VWS V14.01,2013-09-03 21:19:00,
2013-09-03 16:24:00,91.9,53.2,28.47,SW,219,3.1,5.8,27,0.00,,---,0.00,VWS V14.01,2013-09-03 21:24:00,
2013-09-03 16:29:00,91.8,53.1,28.47,SSE,147,2.7,5.8,27,0.00,,---,0.00,VWS V14.01,2013-09-03 21:29:00,
2013-09-03 16:34:00,91.6,52.9,28.47,SE,136,2.7,5.8,27,0.00,,---,0.00,VWS V14.01,2013-09-03 21:34:00,
2013-09-03 16:39:00,91.0,52.5,28.47,SE,138,0.0,5.8,27,0.00,,---,0.00,VWS V14.01,2013-09-03 21:39:00,
2013-09-03 16:44:00,90.5,52.0,28.44,NNW,341,2.7,5.8,27,0.00,,---,0.00,VWS V14.01,2013-09-03 21:44:00,
2013-09-03 16:49:00,89.6,51.2,28.44,North,357,0.0,5.8,27,0.00,,---,0.00,VWS V14.01,2013-09-03 21:49:00,
2013-09-03 16:54:00,88.9,51.6,28.44,NE,36,0.0,5.8,28,0.00,,---,0.00,VWS V14.01,2013-09-03 21:54:00,
2013-09-03 16:59:00,88.5,51.3,28.44,West,277,0.0,5.8,28,0.00,,---,0.00,VWS V14.01,2013-09-03 21:59:00,
2013-09-03 17:05:00,88.3,51.1,28.44,SSE,165,3.1,6.3,28,0.00,,---,0.00,VWS V14.01,2013-09-03 22:05:00,
2013-09-03 17:10:00,88.2,51.0,28.44,North,357,0.0,6.3,28,0.00,,---,0.00,VWS V14.01,2013-09-03 22:10:00,
2013-09-03 17:15:00,88.0,50.8,28.44,SSE,158,3.1,6.3,28,0.00,,---,0.00,VWS V14.01,2013-09-03 22:15:00,
2013-09-03 17:20:00,87.8,50.7,28.44,South,176,0.0,6.3,28,0.00,,---,0.00,VWS V14.01,2013-09-03 22:20:00,
2013-09-03 17:25:00,87.8,50.7,28.44,North,350,0.0,6.3,28,0.00,,---,0.00,VWS V14.01,2013-09-03 22:25:00,
2013-09-03 17:30:00,87.6,50.5,28.44,South,187,2.7,6.3,28,0.00,,---,0.00,VWS V14.01,2013-09-03 22:30:00,
2013-09-03 17:35:00,87.6,50.5,28.44,South,187,0.0,6.3,28,0.00,,---,0.00,VWS V14.01,2013-09-03 22:35:00,
2013-09-03 17:40:00,87.4,50.4,28.44,SSW,204,2.7,6.3,28,0.00,,---,0.00,VWS V14.01,2013-09-03 22:40:00,
2013-09-03 17:45:00,87.4,50.4,28.44,SSW,204,2.7,6.3,28,0.00,,---,0.00,VWS V14.01,2013-09-03 22:45:00,
2013-09-03 17:50:00,87.3,50.2,28.44,South,179,0.0,6.3,28,0.00,,---,0.00,VWS V14.01,2013-09-03 22:50:00,
2013-09-03 17:56:00,87.3,50.2,28.44,East,87,0.0,6.3,28,0.00,,---,0.00,VWS V14.01,2013-09-03 22:56:00,
2013-09-03 18:01:00,87.3,50.2,28.44,East,87,0.0,0.0,28,0.00,,---,0.00,VWS V14.01,2013-09-03 23:01:00,
2013-09-03 18:06:00,87.3,50.2,28.44,East,87,0.0,0.0,28,0.00,,---,0.00,VWS V14.01,2013-09-03 23:06:00,
2013-09-03 18:11:00,87.1,51.0,28.44,East,95,0.0,2.7,29,0.00,,---,0.00,VWS V14.01,2013-09-03 23:11:00,
2013-09-03 18:16:00,87.1,51.0,28.44,NNE,15,2.7,2.7,29,0.00,,---,0.00,VWS V14.01,2013-09-03 23:16:00,
2013-09-03 18:21:00,87.1,51.0,28.44,NNE,32,0.0,3.6,29,0.00,,---,0.00,VWS V14.01,2013-09-03 23:21:00,
2013-09-03 18:26:00,87.1,51.0,28.44,South,177,2.2,3.6,29,0.00,,---,0.00,VWS V14.01,2013-09-03 23:26:00,
2013-09-03 18:31:00,87.1,51.0,28.44,South,176,0.0,3.6,29,0.00,,---,0.00,VWS V14.01,2013-09-03 23:31:00,
2013-09-03 18:36:00,87.1,51.0,28.44,South,175,0.0,3.6,29,0.00,,---,0.00,VWS V14.01,2013-09-03 23:36:00,
2013-09-03 18:41:00,87.1,51.0,28.44,South,172,2.2,3.6,29,0.00,,---,0.00,VWS V14.01,2013-09-03 23:41:00,
2013-09-03 18:46:00,87.1,51.0,28.44,North,349,0.0,4.0,29,0.00,,---,0.00,VWS V14.01,2013-09-03 23:46:00,
2013-09-03 18:52:00,87.4,51.3,28.44,ENE,67,0.0,4.9,29,0.00,,---,0.00,VWS V14.01,2013-09-03 23:52:00,
2013-09-03 18:57:00,87.4,51.3,28.44,East,84,0.0,4.9,29,0.00,,---,0.00,VWS V14.01,2013-09-03 23:57:00,
2013-09-03 19:02:00,87.6,51.5,28.44,ENE,73,2.2,2.7,29,0.00,,---,0.00,VWS V14.01,2013-09-04 00:02:00,
2013-09-03 19:07:00,87.6,50.5,28.44,NNW,336,0.0,2.7,28,0.00,,---,0.00,VWS V14.01,2013-09-04 00:07:00,
2013-09-03 19:12:00,87.4,50.4,28.44,East,93,3.1,3.1,28,0.00,,---,0.00,VWS V14.01,2013-09-04 00:12:00,
2013-09-03 19:17:00,87.1,50.1,28.44,NE,36,0.0,4.0,28,0.00,,---,0.00,VWS V14.01,2013-09-04 00:17:00,
2013-09-03 19:22:00,86.7,49.8,28.44,North,0,0.0,4.0,28,0.00,,---,0.00,VWS V14.01,2013-09-04 00:22:00,
2013-09-03 19:27:00,86.2,49.3,28.44,ESE,116,0.0,4.0,28,0.00,,---,0.00,VWS V14.01,2013-09-04 00:27:00,
2013-09-03 19:32:00,85.8,49.9,28.44,NNW,342,3.6,4.0,29,0.00,,---,0.00,VWS V14.01,2013-09-04 00:32:00,
2013-09-03 19:37:00,85.3,49.5,28.44,ENE,62,0.0,4.0,29,0.00,,---,0.00,VWS V14.01,2013-09-04 00:37:00,
2013-09-03 19:42:00,84.7,49.0,28.44,ENE,62,0.0,4.0,29,0.00,,---,0.00,VWS V14.01,2013-09-04 00:42:00,
2013-09-03 19:48:00,84.0,48.4,28.44,NNE,33,0.0,4.0,29,0.00,,---,0.00,VWS V14.01,2013-09-04 00:48:00,
2013-09-03 19:53:00,83.5,47.9,28.44,East,100,0.0,4.0,29,0.00,,---,0.00,VWS V14.01,2013-09-04 00:53:00,
2013-09-03 19:58:00,82.9,47.5,28.44,East,89,0.0,4.0,29,0.00,,---,0.00,VWS V14.01,2013-09-04 00:58:00,
2013-09-03 20:03:00,82.4,47.9,28.44,East,88,0.0,0.0,30,0.00,,---,0.00,VWS V14.01,2013-09-04 01:03:00,
2013-09-03 20:08:00,82.0,47.6,28.44,East,88,0.0,0.0,30,0.00,,---,0.00,VWS V14.01,2013-09-04 01:08:00,
2013-09-03 20:13:00,81.7,48.1,28.44,ESE,103,2.2,3.1,31,0.00,,---,0.00,VWS V14.01,2013-09-04 01:13:00,
2013-09-03 20:18:00,81.1,47.7,28.44,East,79,0.0,3.1,31,0.00,,---,0.00,VWS V14.01,2013-09-04 01:18:00,
2013-09-03 20:23:00,80.8,47.4,28.44,East,79,0.0,3.1,31,0.00,,---,0.00,VWS V14.01,2013-09-04 01:23:00,
2013-09-03 20:28:00,80.2,47.7,28.44,East,86,0.0,3.1,32,0.00,,---,0.00,VWS V14.01,2013-09-04 01:28:00,
2013-09-03 20:33:00,79.9,47.4,28.44,ENE,74,0.0,3.1,32,0.00,,---,0.00,VWS V14.01,2013-09-04 01:33:00,
2013-09-03 20:39:00,79.7,48.1,28.44,NE,45,0.0,3.1,33,0.00,,---,0.00,VWS V14.01,2013-09-04 01:39:00,
2013-09-03 20:44:00,79.3,47.8,28.44,NE,45,0.0,3.1,33,0.00,,---,0.00,VWS V14.01,2013-09-04 01:44:00,
2013-09-03 20:49:00,79.0,48.2,28.44,NE,46,0.0,3.1,34,0.00,,---,0.00,VWS V14.01,2013-09-04 01:49:00,
2013-09-03 20:54:00,78.6,48.7,28.44,NE,46,0.0,3.1,35,0.00,,---,0.00,VWS V14.01,2013-09-04 01:54:00,
2013-09-03 20:59:00,78.3,49.1,28.47,NE,47,0.0,3.1,36,0.00,,---,0.00,VWS V14.01,2013-09-04 01:59:00,
2013-09-03 21:04:00,77.9,49.6,28.47,East,83,2.7,5.4,37,0.00,,---,0.00,VWS V14.01,2013-09-04 02:04:00,
2013-09-03 21:09:00,77.9,50.3,28.47,ENE,66,0.0,5.4,38,0.00,,---,0.00,VWS V14.01,2013-09-04 02:09:00,
2013-09-03 21:14:00,77.7,50.1,28.47,East,79,0.0,5.4,38,0.00,,---,0.00,VWS V14.01,2013-09-04 02:14:00,
2013-09-03 21:19:00,77.5,50.7,28.47,ENE,74,0.0,5.4,39,0.00,,---,0.00,VWS V14.01,2013-09-04 02:19:00,
2013-09-03 21:24:00,77.2,51.0,28.47,ENE,74,0.0,5.4,40,0.00,,---,0.00,VWS V14.01,2013-09-04 02:24:00,
2013-09-03 21:30:00,77.0,50.9,28.47,NE,47,0.0,5.4,40,0.00,,---,0.00,VWS V14.01,2013-09-04 02:30:00,
2013-09-03 21:35:00,76.6,51.2,28.47,East,83,0.0,5.4,41,0.00,,---,0.00,VWS V14.01,2013-09-04 02:35:00,
2013-09-03 21:40:00,76.3,51.5,28.47,ENE,68,0.0,5.4,42,0.00,,---,0.00,VWS V14.01,2013-09-04 02:40:00,
2013-09-03 21:45:00,76.1,51.4,28.47,NW,323,0.0,5.4,42,0.00,,---,0.00,VWS V14.01,2013-09-04 02:45:00,
2013-09-03 21:50:00,75.7,51.0,28.47,NW,323,0.0,5.4,42,0.00,,---,0.00,VWS V14.01,2013-09-04 02:50:00,
2013-09-03 21:55:00,75.4,51.3,28.47,NNE,27,0.0,5.4,43,0.00,,---,0.00,VWS V14.01,2013-09-04 02:55:00,
2013-09-03 22:00:00,75.0,51.7,28.47,NNE,27,0.0,0.0,44,0.00,,---,0.00,VWS V14.01,2013-09-04 03:00:00,
2013-09-03 22:05:00,74.8,51.5,28.47,NE,37,0.0,0.0,44,0.00,,---,0.00,VWS V14.01,2013-09-04 03:05:00,
2013-09-03 22:10:00,74.7,51.9,28.47,NE,36,0.0,0.0,45,0.00,,---,0.00,VWS V14.01,2013-09-04 03:10:00,
2013-09-03 22:15:00,74.5,51.8,28.47,NE,37,0.0,0.0,45,0.00,,---,0.00,VWS V14.01,2013-09-04 03:15:00,
2013-09-03 22:21:00,74.3,51.6,28.47,NNE,33,0.0,2.7,45,0.00,,---,0.00,VWS V14.01,2013-09-04 03:21:00,
2013-09-03 22:26:00,74.1,51.4,28.47,NNE,22,0.0,2.7,45,0.00,,---,0.00,VWS V14.01,2013-09-04 03:26:00,
2013-09-03 22:31:00,73.9,51.3,28.47,NNE,24,0.0,2.7,45,0.00,,---,0.00,VWS V14.01,2013-09-04 03:31:00,
2013-09-03 22:36:00,73.8,51.1,28.47,NNE,24,0.0,2.7,45,0.00,,---,0.00,VWS V14.01,2013-09-04 03:36:00,
2013-09-03 22:41:00,73.6,51.5,28.47,SSE,168,2.7,2.7,46,0.00,,---,0.00,VWS V14.01,2013-09-04 03:41:00,
2013-09-03 22:46:00,73.4,51.4,28.47,SSE,168,0.0,3.1,46,0.00,,---,0.00,VWS V14.01,2013-09-04 03:46:00,
2013-09-03 22:51:00,73.0,51.1,28.47,SSE,168,0.0,3.1,46,0.00,,---,0.00,VWS V14.01,2013-09-04 03:51:00,
2013-09-03 22:56:00,72.7,51.3,28.47,SSE,168,0.0,3.1,47,0.00,,---,0.00,VWS V14.01,2013-09-04 03:56:00,
2013-09-03 23:01:00,72.5,51.2,28.47,SSE,168,0.0,0.0,47,0.00,,---,0.00,VWS V14.01,2013-09-04 04:01:00,
2013-09-03 23:02:00,72.5,51.2,28.47,SSE,168,0.0,0.0,47,0.00,,---,0.00,VWS V14.01,2013-09-04 04:02:00,
2013-09-03 23:03:00,72.5,51.2,28.47,SSE,168,0.0,0.0,47,0.00,,---,0.00,VWS V14.01,2013-09-04 04:03:00,
2013-09-03 23:08:00,72.3,51.0,28.47,SSE,168,0.0,0.0,47,0.00,,---,0.00,VWS V14.01,2013-09-04 04:08:00,
2013-09-03 23:13:00,72.1,51.4,28.47,SSE,163,0.0,4.0,48,0.00,,---,0.00,VWS V14.01,2013-09-04 04:13:00,
2013-09-03 23:18:00,72.1,51.4,28.50,South,171,2.7,4.0,48,0.00,,---,0.00,VWS V14.01,2013-09-04 04:18:00,
2013-09-03 23:24:00,72.0,51.2,28.50,SSE,166,0.0,4.0,48,0.00,,---,0.00,VWS V14.01,2013-09-04 04:24:00,
2013-09-03 23:29:00,72.0,51.2,28.50,SSE,166,2.7,4.0,48,0.00,,---,0.00,VWS V14.01,2013-09-04 04:29:00,
2013-09-03 23:34:00,72.0,51.8,28.50,South,173,2.7,4.0,49,0.00,,---,0.00,VWS V14.01,2013-09-04 04:34:00,
2013-09-03 23:39:00,71.8,51.6,28.50,South,176,2.2,4.0,49,0.00,,---,0.00,VWS V14.01,2013-09-04 04:39:00,
2013-09-03 23:44:00,71.8,51.6,28.50,South,176,0.0,4.0,49,0.00,,---,0.00,VWS V14.01,2013-09-04 04:44:00,
2013-09-03 23:49:00,71.6,51.5,28.50,South,176,0.0,4.0,49,0.00,,---,0.00,VWS V14.01,2013-09-04 04:49:00,
2013-09-03 23:54:00,71.4,51.8,28.50,South,176,0.0,4.0,50,0.00,,---,0.00,VWS V14.01,2013-09-04 04:54:00,
2013-09-03 23:59:00,71.1,51.5,28.50,South,176,0.0,4.0,50,0.00,,---,0.00,VWS V14.01,2013-09-04 04:59:00,